Terminal Aerodrome Forecast
Issued by NWS

Home | Current Version | Previous Version | Graphics & Text | Print | Product List | Glossary On
Versions: 1 2 3 4 5 6 7 8 9 10 11 12 13 14 15 16 17 18 19
809
FTUS43 KICT 201740
TAFRSL
TAF
KRSL 201740Z 2018/2118 22012KT P6SM FEW250
     FM202300 17013KT P6SM VCTS FEW070CB SCT200
     FM210400 17012KT P6SM BKN200
     FM210700 17011KT P6SM SCT200 WS020/20040KT
     FM211200 19010KT P6SM FEW200
     FM211600 19018KT P6SM FEW250=

USA.gov is the U.S. government's official web portal to all federal, state and local government web resources and services.